Time,TemperatureF,DewpointF,PressureIn,WindDirection,WindDirectionDegrees,WindSpeedMPH,WindSpeedGustMPH,Humidity,HourlyPrecipIn,Conditions,Clouds,dailyrainin,SoftwareType,DateUTC
2013-07-19 00:03:00,72.6,71.0,24.01,North,5,0.0,-999.0,95,-99.99,,,0.00,weatherlink.com 1.10,2013-07-19 04:03:00,
2013-07-19 00:18:00,72.7,72.0,23.99,North,5,0.0,-999.0,96,-99.99,,,0.00,weatherlink.com 1.10,2013-07-19 04:18:00,
2013-07-19 00:33:00,72.6,71.0,23.98,North,5,0.0,-999.0,96,-99.99,,,0.00,weatherlink.com 1.10,2013-07-19 04:33:00,
2013-07-19 00:48:00,72.6,71.0,23.99,North,5,0.0,-999.0,96,-99.99,,,0.00,weatherlink.com 1.10,2013-07-19 04:48:00,
2013-07-19 01:03:00,72.5,71.0,23.99,North,5,0.0,-999.0,96,-99.99,,,0.00,weatherlink.com 1.10,2013-07-19 05:03:00,
2013-07-19 01:18:00,72.5,71.0,23.99,North,5,0.0,-999.0,96,-99.99,,,0.00,weatherlink.com 1.10,2013-07-19 05:18:00,
2013-07-19 01:33:00,72.6,71.0,23.99,North,5,0.0,-999.0,96,-99.99,,,0.00,weatherlink.com 1.10,2013-07-19 05:33:00,
2013-07-19 01:48:00,72.8,72.0,23.99,North,5,0.0,-999.0,96,-99.99,,,0.00,weatherlink.com 1.10,2013-07-19 05:48:00,
2013-07-19 02:03:00,72.6,72.0,23.99,North,5,0.0,-999.0,97,-99.99,,,0.00,weatherlink.com 1.10,2013-07-19 06:03:00,
2013-07-19 02:18:00,72.3,71.0,23.99,North,5,0.0,-999.0,96,-99.99,,,0.00,weatherlink.com 1.10,2013-07-19 06:18:00,
2013-07-19 02:33:00,72.4,72.0,23.99,North,5,0.0,-999.0,97,-99.99,,,0.00,weatherlink.com 1.10,2013-07-19 06:33:00,
2013-07-19 02:48:00,72.5,72.0,23.99,North,5,0.0,-999.0,97,-99.99,,,0.00,weatherlink.com 1.10,2013-07-19 06:48:00,
2013-07-19 03:03:00,72.5,72.0,23.98,North,5,0.0,-999.0,97,-99.99,,,0.00,weatherlink.com 1.10,2013-07-19 07:03:00,
2013-07-19 03:18:00,72.6,72.0,23.99,North,5,0.0,-999.0,97,-99.99,,,0.00,weatherlink.com 1.10,2013-07-19 07:18:00,
2013-07-19 03:33:00,72.7,72.0,23.99,North,5,0.0,-999.0,97,-99.99,,,0.00,weatherlink.com 1.10,2013-07-19 07:33:00,
2013-07-19 03:48:00,72.7,72.0,23.99,North,5,0.0,-999.0,97,-99.99,,,0.00,weatherlink.com 1.10,2013-07-19 07:48:00,
2013-07-19 04:03:00,72.8,72.0,23.98,North,5,0.0,-999.0,97,-99.99,,,0.00,weatherlink.com 1.10,2013-07-19 08:03:00,
2013-07-19 04:18:00,72.6,72.0,23.99,North,5,0.0,-999.0,97,-99.99,,,0.00,weatherlink.com 1.10,2013-07-19 08:18:00,
2013-07-19 04:33:00,72.5,72.0,23.98,North,5,0.0,-999.0,97,-99.99,,,0.00,weatherlink.com 1.10,2013-07-19 08:33:00,
2013-07-19 04:48:00,72.7,72.0,23.98,North,5,0.0,-999.0,97,-99.99,,,0.01,weatherlink.com 1.10,2013-07-19 08:48:00,
2013-07-19 05:03:00,72.8,72.0,23.99,North,5,0.0,-999.0,97,-99.99,,,0.01,weatherlink.com 1.10,2013-07-19 09:03:00,
2013-07-19 05:18:00,72.8,72.0,23.98,North,5,0.0,-999.0,97,-99.99,,,0.01,weatherlink.com 1.10,2013-07-19 09:18:00,
2013-07-19 05:33:00,72.5,72.0,23.98,North,5,0.0,-999.0,97,-99.99,,,0.01,weatherlink.com 1.10,2013-07-19 09:33:00,
2013-07-19 05:48:00,72.5,72.0,23.99,North,5,0.0,-999.0,97,-99.99,,,0.01,weatherlink.com 1.10,2013-07-19 09:48:00,
2013-07-19 06:03:00,72.3,71.0,23.99,North,5,0.0,-999.0,97,-99.99,,,0.01,weatherlink.com 1.10,2013-07-19 10:03:00,
2013-07-19 06:18:00,72.1,71.0,23.99,North,5,0.0,-999.0,97,-99.99,,,0.01,weatherlink.com 1.10,2013-07-19 10:18:00,
2013-07-19 06:33:00,71.9,71.0,23.99,North,5,0.0,-999.0,97,-99.99,,,0.01,weatherlink.com 1.10,2013-07-19 10:33:00,
2013-07-19 06:48:00,71.7,71.0,23.99,North,5,0.0,-999.0,97,-99.99,,,0.01,weatherlink.com 1.10,2013-07-19 10:48:00,
2013-07-19 07:03:00,71.9,71.0,23.99,North,5,0.0,-999.0,98,-99.99,,,0.01,weatherlink.com 1.10,2013-07-19 11:03:00,
2013-07-19 07:18:00,72.2,72.0,23.99,SE,128,0.0,-999.0,98,-99.99,,,0.01,weatherlink.com 1.10,2013-07-19 11:18:00,
2013-07-19 07:33:00,72.4,72.0,23.99,North,5,0.0,-999.0,98,-99.99,,,0.01,weatherlink.com 1.10,2013-07-19 11:33:00,
2013-07-19 07:48:00,72.8,72.0,23.99,North,5,0.0,-999.0,98,-99.99,,,0.01,weatherlink.com 1.10,2013-07-19 11:48:00,
2013-07-19 08:04:00,73.0,72.0,23.99,North,5,2.0,-999.0,98,-99.99,,,0.01,weatherlink.com 1.10,2013-07-19 12:04:00,
2013-07-19 08:19:00,73.3,73.0,23.99,East,89,0.0,-999.0,98,-99.99,,,0.01,weatherlink.com 1.10,2013-07-19 12:19:00,
2013-07-19 08:34:00,73.4,73.0,23.99,East,91,0.0,-999.0,98,-99.99,,,0.01,weatherlink.com 1.10,2013-07-19 12:34:00,
2013-07-19 08:49:00,74.0,73.0,23.99,East,80,0.0,-999.0,98,-99.99,,,0.01,weatherlink.com 1.10,2013-07-19 12:49:00,
2013-07-19 09:04:00,74.4,74.0,23.99,ENE,77,0.0,-999.0,98,-99.99,,,0.01,weatherlink.com 1.10,2013-07-19 13:04:00,
2013-07-19 09:19:00,76.3,75.0,23.99,ESE,107,0.0,-999.0,97,-99.99,,,0.01,weatherlink.com 1.10,2013-07-19 13:19:00,
2013-07-19 09:34:00,77.3,74.0,23.99,ESE,114,0.0,-999.0,90,-99.99,,,0.01,weatherlink.com 1.10,2013-07-19 13:34:00,
2013-07-19 09:49:00,79.3,75.0,23.99,SE,143,0.0,-999.0,86,-99.99,,,0.01,weatherlink.com 1.10,2013-07-19 13:49:00,
2013-07-19 10:04:00,81.2,75.0,23.98,SSW,196,0.0,-999.0,80,-99.99,,,0.01,weatherlink.com 1.10,2013-07-19 14:04:00,
2013-07-19 10:19:00,81.2,73.0,23.99,South,184,3.0,-999.0,75,-99.99,,,0.01,weatherlink.com 1.10,2013-07-19 14:19:00,
2013-07-19 10:34:00,81.8,74.0,23.99,South,175,0.0,-999.0,76,-99.99,,,0.01,weatherlink.com 1.10,2013-07-19 14:34:00,
2013-07-19 10:49:00,81.6,74.0,23.99,SSE,149,0.0,-999.0,78,-99.99,,,0.01,weatherlink.com 1.10,2013-07-19 14:49:00,
2013-07-19 11:04:00,82.3,75.0,23.98,SE,146,4.0,-999.0,78,-99.99,,,0.01,weatherlink.com 1.10,2013-07-19 15:04:00,
2013-07-19 11:19:00,82.3,75.0,23.98,SE,126,4.0,-999.0,78,-99.99,,,0.01,weatherlink.com 1.10,2013-07-19 15:19:00,
2013-07-19 11:34:00,82.1,75.0,23.98,ESE,103,7.0,-999.0,78,-99.99,,,0.01,weatherlink.com 1.10,2013-07-19 15:34:00,
2013-07-19 11:49:00,82.5,75.0,23.98,SE,134,4.0,-999.0,77,-99.99,,,0.01,weatherlink.com 1.10,2013-07-19 15:49:00,
2013-07-19 12:04:00,84.8,75.0,23.97,SSE,154,2.0,-999.0,73,-99.99,,,0.01,weatherlink.com 1.10,2013-07-19 16:04:00,
2013-07-19 12:19:00,86.0,76.0,23.97,SSE,149,3.0,-999.0,71,-99.99,,,0.01,weatherlink.com 1.10,2013-07-19 16:19:00,
2013-07-19 12:34:00,85.8,76.0,23.97,SE,139,2.0,-999.0,72,-99.99,,,0.01,weatherlink.com 1.10,2013-07-19 16:34:00,
2013-07-19 12:49:00,85.4,76.0,23.97,SE,142,7.0,-999.0,73,-99.99,,,0.01,weatherlink.com 1.10,2013-07-19 16:49:00,
2013-07-19 13:04:00,85.6,75.0,23.98,SE,143,3.0,-999.0,71,-99.99,,,0.01,weatherlink.com 1.10,2013-07-19 17:04:00,
2013-07-19 13:19:00,86.5,75.0,23.97,SSE,166,0.0,-999.0,69,-99.99,,,0.01,weatherlink.com 1.10,2013-07-19 17:19:00,
2013-07-19 13:34:00,85.6,75.0,23.97,SSE,157,0.0,-999.0,71,-99.99,,,0.01,weatherlink.com 1.10,2013-07-19 17:34:00,
2013-07-19 13:49:00,87.5,76.0,23.97,North,5,0.0,-999.0,69,-99.99,,,0.01,weatherlink.com 1.10,2013-07-19 17:49:00,
2013-07-19 14:04:00,89.2,76.0,23.97,ESE,114,7.0,-999.0,65,-99.99,,,0.01,weatherlink.com 1.10,2013-07-19 18:04:00,
2013-07-19 14:19:00,87.5,75.0,23.98,SE,138,12.0,-999.0,67,-99.99,,,0.01,weatherlink.com 1.10,2013-07-19 18:19:00,
2013-07-19 14:34:00,86.9,75.0,23.97,North,5,4.0,-999.0,68,-99.99,,,0.01,weatherlink.com 1.10,2013-07-19 18:34:00,
2013-07-19 14:49:00,89.3,76.0,23.95,North,5,7.0,-999.0,64,-99.99,,,0.01,weatherlink.com 1.10,2013-07-19 18:49:00,
2013-07-19 15:04:00,89.5,76.0,23.95,North,5,4.0,-999.0,64,-99.99,,,0.01,weatherlink.com 1.10,2013-07-19 19:04:00,
2013-07-19 15:19:00,88.1,75.0,23.98,North,5,0.0,-999.0,66,-99.99,,,0.01,weatherlink.com 1.10,2013-07-19 19:19:00,
2013-07-19 15:34:00,86.0,75.0,23.96,North,5,5.0,-999.0,70,-99.99,,,0.01,weatherlink.com 1.10,2013-07-19 19:34:00,
2013-07-19 15:49:00,85.6,76.0,23.95,North,5,8.0,-999.0,72,-99.99,,,0.01,weatherlink.com 1.10,2013-07-19 19:49:00,
2013-07-19 16:04:00,80.4,73.0,23.98,North,5,10.0,-999.0,77,-99.99,,,0.01,weatherlink.com 1.10,2013-07-19 20:04:00,
2013-07-19 16:19:00,79.6,73.0,23.99,North,5,0.0,-999.0,79,-99.99,,,0.01,weatherlink.com 1.10,2013-07-19 20:19:00,
2013-07-19 20:11:00,73.2,72.0,23.99,North,5,0.0,-999.0,95,-99.99,,,0.45,weatherlink.com 1.10,2013-07-20 00:11:00,
2013-07-19 20:35:00,73.0,72.0,23.99,North,5,0.0,-999.0,96,-99.99,,,0.51,weatherlink.com 1.10,2013-07-20 00:35:00,
2013-07-19 20:50:00,73.0,72.0,23.99,North,5,0.0,-999.0,96,-99.99,,,0.54,weatherlink.com 1.10,2013-07-20 00:50:00,
2013-07-19 21:05:00,72.9,72.0,23.99,North,5,0.0,-999.0,96,-99.99,,,0.56,weatherlink.com 1.10,2013-07-20 01:05:00,
2013-07-19 21:20:00,72.9,72.0,23.99,North,5,0.0,-999.0,96,-99.99,,,0.58,weatherlink.com 1.10,2013-07-20 01:20:00,
2013-07-19 21:35:00,72.8,72.0,23.99,North,5,0.0,-999.0,96,-99.99,,,0.59,weatherlink.com 1.10,2013-07-20 01:35:00,
2013-07-19 21:50:00,72.9,72.0,23.99,North,5,0.0,-999.0,97,-99.99,,,0.60,weatherlink.com 1.10,2013-07-20 01:50:00,
2013-07-19 22:05:00,72.8,72.0,23.99,North,5,0.0,-999.0,97,-99.99,,,0.60,weatherlink.com 1.10,2013-07-20 02:05:00,
2013-07-19 22:20:00,72.9,72.0,23.98,North,5,0.0,-999.0,97,-99.99,,,0.60,weatherlink.com 1.10,2013-07-20 02:20:00,
2013-07-19 22:35:00,72.9,72.0,23.99,North,5,0.0,-999.0,97,-99.99,,,0.60,weatherlink.com 1.10,2013-07-20 02:35:00,
2013-07-19 22:50:00,73.0,72.0,23.98,North,5,0.0,-999.0,97,-99.99,,,0.60,weatherlink.com 1.10,2013-07-20 02:50:00,
2013-07-19 23:05:00,73.1,72.0,23.99,North,5,0.0,-999.0,97,-99.99,,,0.60,weatherlink.com 1.10,2013-07-20 03:05:00,
2013-07-19 23:20:00,73.1,72.0,23.99,North,5,0.0,-999.0,97,-99.99,,,0.61,weatherlink.com 1.10,2013-07-20 03:20:00,
2013-07-19 23:35:00,73.0,72.0,23.98,North,5,0.0,-999.0,97,-99.99,,,0.61,weatherlink.com 1.10,2013-07-20 03:35:00,
2013-07-19 23:50:00,73.1,72.0,23.99,North,5,0.0,-999.0,97,-99.99,,,0.61,weatherlink.com 1.10,2013-07-20 03:50:00,